Time;durP1;ratioP1;P1;durP2;ratioP2;P2;SDS_P1;SDS_P2;PMS_P1;PMS_P2;Temp;Humidity;BMP_temperature;BMP_pressure;BME280_temperature;BME280_humidity;BME280_pressure;Samples;Min_cycle;Max_cycle;Signal;HPM_P1;HPM_P2
2023/01/25 00:00:01;;;;;;;1.10;0.30;;;;;;;8.33;46.54;96212.69;4988898;28;20269;-64
2023/01/25 00:02:30;;;;;;;0.30;0.30;;;;;;;8.15;46.50;96195.09;4990689;28;20209;-61
2023/01/25 00:04:57;;;;;;;0.00;0.00;;;;;;;8.31;46.19;96215.50;4990291;28;20199;-64
2023/01/25 00:07:24;;;;;;;0.00;0.00;;;;;;;8.46;46.61;96223.06;4990322;28;20650;-65
2023/01/25 00:09:51;;;;;;;0.00;0.00;;;;;;;8.43;46.57;96228.72;4989858;28;20214;-65
2023/01/25 00:12:17;;;;;;;0.00;0.00;;;;;;;8.47;46.52;96222.84;4990398;28;20253;-62
2023/01/25 00:14:44;;;;;;;0.08;0.08;;;;;;;8.44;46.59;96225.09;4989603;28;20256;-64
2023/01/25 00:17:11;;;;;;;0.00;0.00;;;;;;;8.36;46.73;96223.50;4990052;28;20214;-64
2023/01/25 00:19:38;;;;;;;0.98;0.55;;;;;;;8.23;47.30;96224.34;4990079;28;20242;-65
2023/01/25 00:22:05;;;;;;;0.00;0.00;;;;;;;8.21;47.10;96207.31;4990831;28;20199;-64
2023/01/25 00:24:32;;;;;;;0.20;0.20;;;;;;;8.31;46.95;96215.50;4990090;28;20256;-62
2023/01/25 00:26:58;;;;;;;0.32;0.32;;;;;;;8.45;47.12;96211.81;4989525;28;20625;-64
2023/01/25 00:29:25;;;;;;;0.00;0.00;;;;;;;8.33;46.38;96216.09;4990111;28;20202;-63
2023/01/25 00:32:17;;;;;;;0.15;0.15;;;;;;;8.41;47.19;96220.28;4989406;28;20252;-64
2023/01/25 00:34:47;;;;;;;0.32;0.32;;;;;;;8.31;46.93;96214.69;4987898;28;20205;-63
2023/01/25 00:37:20;;;;;;;0.00;0.00;;;;;;;8.41;46.83;96215.06;4988612;28;20274;-61
2023/01/25 00:39:47;;;;;;;0.32;0.32;;;;;;;8.43;47.19;96213.81;4988848;28;20340;-63
2023/01/25 00:42:16;;;;;;;0.00;0.00;;;;;;;8.41;47.38;96217.69;4990456;28;20559;-64
2023/01/25 00:44:44;;;;;;;0.10;0.10;;;;;;;8.25;46.88;96211.13;4987957;28;20203;-61
2023/01/25 00:47:11;;;;;;;0.10;0.10;;;;;;;8.34;46.78;96215.09;4989576;28;20187;-61
2023/01/25 00:49:40;;;;;;;0.57;0.57;;;;;;;8.33;47.17;96223.94;4989008;28;20212;-62
2023/01/25 00:52:08;;;;;;;1.75;1.40;;;;;;;8.38;47.25;96218.88;4988415;28;20304;-64
2023/01/25 00:54:35;;;;;;;0.00;0.00;;;;;;;8.43;47.10;96224.28;4989511;28;20210;-63
2023/01/25 00:57:02;;;;;;;0.00;0.00;;;;;;;8.35;47.38;96223.72;4987808;28;20273;-65
2023/01/25 00:59:29;;;;;;;0.00;0.00;;;;;;;8.16;47.09;96228.00;4987966;28;20234;-63
2023/01/25 01:01:56;;;;;;;0.10;0.10;;;;;;;7.68;47.75;96224.16;4987579;28;20285;-62
2023/01/25 01:04:23;;;;;;;0.00;0.00;;;;;;;8.02;47.81;96218.63;4987549;28;20260;-63
2023/01/25 01:06:52;;;;;;;0.20;0.20;;;;;;;8.22;47.78;96221.97;4987438;28;20662;-62
2023/01/25 01:09:21;;;;;;;0.00;0.00;;;;;;;8.22;47.29;96221.97;4987961;28;20206;-63
2023/01/25 01:11:51;;;;;;;0.20;0.20;;;;;;;8.13;47.39;96224.00;4986990;28;20597;-66
2023/01/25 01:14:18;;;;;;;0.00;0.00;;;;;;;7.88;47.41;96215.25;4979044;28;20306;-66
2023/01/25 01:16:46;;;;;;;0.00;0.00;;;;;;;7.88;46.92;96217.88;4970854;28;20202;-61
2023/01/25 01:19:13;;;;;;;0.60;0.60;;;;;;;7.39;48.58;96214.97;4988987;28;20234;-64
2023/01/25 01:21:39;;;;;;;0.20;0.20;;;;;;;7.47;48.32;96219.19;4988548;28;20205;-63
2023/01/25 01:24:08;;;;;;;0.75;0.75;;;;;;;6.54;50.29;96215.00;4989085;28;20247;-62
2023/01/25 01:26:36;;;;;;;0.00;0.00;;;;;;;6.71;50.39;96220.63;4988791;28;20203;-66
2023/01/25 01:29:03;;;;;;;0.10;0.10;;;;;;;6.60;50.67;96219.41;4988878;28;20195;-61
2023/01/25 01:31:30;;;;;;;0.00;0.00;;;;;;;7.08;49.22;96213.00;4988573;28;20241;-63
2023/01/25 01:34:05;;;;;;;0.63;0.52;;;;;;;7.64;48.69;96207.31;4987322;28;20217;-64
2023/01/25 01:36:32;;;;;;;0.00;0.00;;;;;;;7.74;48.43;96202.47;4988571;28;20194;-64
2023/01/25 01:39:00;;;;;;;0.00;0.00;;;;;;;7.77;48.31;96194.25;4988820;28;20218;-64
2023/01/25 01:41:27;;;;;;;0.00;0.00;;;;;;;7.77;48.62;96194.25;4986704;28;20251;-64
2023/01/25 01:43:54;;;;;;;0.00;0.00;;;;;;;7.94;47.80;96197.97;4989233;28;20202;-62
2023/01/25 01:46:30;;;;;;;0.00;0.00;;;;;;;8.00;47.49;96202.38;4987194;28;20230;-65
2023/01/25 01:49:09;;;;;;;0.20;0.20;;;;;;;8.14;47.74;96196.88;4987203;28;20212;-61
2023/01/25 01:51:51;;;;;;;1.75;0.80;;;;;;;7.87;47.69;96194.59;4986714;28;20206;-62
2023/01/25 01:54:30;;;;;;;0.00;0.00;;;;;;;7.87;47.56;96198.00;4970813;28;20256;-64
2023/01/25 01:57:00;;;;;;;0.17;0.17;;;;;;;8.03;47.76;96191.50;4967669;28;20298;-65
2023/01/25 01:59:58;;;;;;;0.28;0.28;;;;;;;7.73;48.28;96188.63;4968149;28;20235;-64
2023/01/25 02:02:26;;;;;;;0.00;0.00;;;;;;;8.02;47.79;96192.53;4984129;28;20720;-64
2023/01/25 02:04:56;;;;;;;0.00;0.00;;;;;;;8.07;47.15;96192.69;4976831;28;20203;-62
2023/01/25 02:07:35;;;;;;;0.20;0.20;;;;;;;7.69;47.90;96199.66;4987596;28;20206;-63
2023/01/25 02:10:08;;;;;;;0.00;0.00;;;;;;;8.00;47.50;96189.31;4986755;28;20209;-65
2023/01/25 02:12:36;;;;;;;0.10;0.05;;;;;;;7.90;47.82;96191.59;4987661;28;20366;-63
2023/01/25 02:15:05;;;;;;;0.10;0.10;;;;;;;8.09;47.60;96195.91;4986572;28;20202;-63
2023/01/25 02:17:34;;;;;;;0.00;0.00;;;;;;;8.00;47.52;96187.53;4978043;28;20314;-63
2023/01/25 02:20:25;;;;;;;0.00;0.00;;;;;;;8.20;47.39;96190.84;4970329;28;20250;-63
2023/01/25 02:22:59;;;;;;;0.00;0.00;;;;;;;8.09;47.67;96185.47;4989930;28;20217;-64
2023/01/25 02:25:26;;;;;;;0.00;0.00;;;;;;;8.14;46.98;96193.47;4972400;28;20206;-62
2023/01/25 02:27:59;;;;;;;0.00;0.00;;;;;;;8.21;47.40;96194.25;4971770;28;20253;-64
2023/01/25 02:30:27;;;;;;;0.25;0.20;;;;;;;7.61;47.71;96185.03;4970717;28;20203;-62
2023/01/25 02:32:54;;;;;;;0.00;0.00;;;;;;;7.57;48.34;96196.88;4971690;28;20202;-65
2023/01/25 02:35:34;;;;;;;2.50;0.52;;;;;;;7.86;47.96;96196.41;4991522;28;20203;-63
2023/01/25 02:38:01;;;;;;;0.00;0.00;;;;;;;8.04;47.11;96178.28;4991882;28;20202;-64
2023/01/25 02:40:31;;;;;;;0.00;0.00;;;;;;;8.21;47.69;96186.41;4990622;28;20218;-65
2023/01/25 02:42:57;;;;;;;0.52;0.52;;;;;;;8.21;47.56;96187.19;4991517;28;20212;-65
2023/01/25 02:45:28;;;;;;;0.73;0.73;;;;;;;8.05;47.39;96174.63;4980800;28;20229;-62
2023/01/25 02:47:55;;;;;;;0.00;0.00;;;;;;;8.08;47.24;96186.47;4970899;28;20640;-62
2023/01/25 02:50:22;;;;;;;0.22;0.15;;;;;;;8.13;47.19;96177.03;4970312;28;20230;-64
2023/01/25 02:52:48;;;;;;;0.00;0.00;;;;;;;8.23;47.03;96166.09;4970817;28;20223;-62
2023/01/25 02:55:17;;;;;;;0.00;0.00;;;;;;;8.41;46.30;96179.28;4986804;28;20338;-63
2023/01/25 02:57:44;;;;;;;0.00;0.00;;;;;;;8.23;46.38;96175.75;4971047;28;20659;-61
2023/01/25 03:00:14;;;;;;;0.10;0.10;;;;;;;8.16;46.90;96191.44;4975787;28;20239;-65
2023/01/25 03:02:43;;;;;;;0.57;0.57;;;;;;;7.88;47.45;96188.38;4989720;28;20202;-63
2023/01/25 03:05:10;;;;;;;0.00;0.00;;;;;;;8.07;47.10;96193.50;4991406;28;20194;-64
2023/01/25 03:07:37;;;;;;;0.00;0.00;;;;;;;7.89;47.74;96184.75;4974505;28;20608;-62
2023/01/25 03:10:04;;;;;;;0.00;0.00;;;;;;;7.77;47.69;96189.03;4985265;28;20210;-64
2023/01/25 03:12:34;;;;;;;0.08;0.08;;;;;;;7.89;46.85;96187.34;4990597;28;20298;-65
2023/01/25 03:15:01;;;;;;;0.05;0.05;;;;;;;8.08;47.08;96195.09;4989842;28;20213;-65
2023/01/25 03:17:30;;;;;;;0.20;0.15;;;;;;;8.27;46.43;96188.22;4991715;28;20207;-64
2023/01/25 03:19:57;;;;;;;0.00;0.00;;;;;;;8.10;47.08;96193.06;4976553;28;20301;-62
2023/01/25 03:22:24;;;;;;;0.10;0.10;;;;;;;8.14;46.31;96183.03;4989748;28;20245;-62
2023/01/25 03:24:51;;;;;;;0.22;0.22;;;;;;;7.91;46.85;96190.56;4990003;28;20293;-64
2023/01/25 03:27:19;;;;;;;0.95;0.85;;;;;;;8.19;47.07;96180.59;4989524;28;20210;-63
2023/01/25 03:29:50;;;;;;;0.20;0.20;;;;;;;8.18;47.44;96186.81;4988921;28;20198;-66
2023/01/25 03:32:24;;;;;;;0.10;0.10;;;;;;;8.16;46.41;96184.41;4989488;28;20226;-61
2023/01/25 03:34:52;;;;;;;1.55;1.17;;;;;;;8.13;46.95;96181.44;4987973;28;20206;-61
2023/01/25 03:37:19;;;;;;;0.22;0.22;;;;;;;8.30;46.35;96187.81;4989459;28;20214;-62
2023/01/25 03:39:47;;;;;;;0.00;0.00;;;;;;;8.38;46.84;96190.16;4988524;28;20235;-65
2023/01/25 03:42:14;;;;;;;0.05;0.05;;;;;;;7.89;47.17;96189.97;4990557;28;20215;-61
2023/01/25 03:44:42;;;;;;;0.52;0.32;;;;;;;8.16;47.00;96181.00;4975526;28;20674;-64
2023/01/25 03:47:09;;;;;;;0.38;0.38;;;;;;;8.28;47.03;96182.00;4979579;28;20655;-62
2023/01/25 03:49:36;;;;;;;0.10;0.10;;;;;;;8.29;47.00;96180.97;4969863;28;20799;-60
2023/01/25 03:52:05;;;;;;;0.35;0.35;;;;;;;8.38;46.59;96173.69;4969741;28;20199;-63
2023/01/25 03:54:36;;;;;;;0.00;0.00;;;;;;;8.39;46.58;96175.28;4970013;28;20675;-63
2023/01/25 03:57:02;;;;;;;0.00;0.00;;;;;;;8.49;46.07;96180.84;4982945;28;20201;-63
2023/01/25 03:59:34;;;;;;;0.00;0.00;;;;;;;8.50;46.38;96178.03;4969644;28;20257;-67
2023/01/25 04:02:01;;;;;;;0.00;0.00;;;;;;;8.46;46.64;96174.25;4969431;28;20214;-63
2023/01/25 04:04:28;;;;;;;0.00;0.00;;;;;;;8.51;46.35;96169.19;4989014;28;20563;-62
2023/01/25 04:06:56;;;;;;;0.32;0.30;;;;;;;8.48;46.80;96161.78;4988851;28;20199;-65
2023/01/25 04:09:23;;;;;;;0.00;0.00;;;;;;;7.80;46.87;96173.75;4981266;28;20203;-62
2023/01/25 04:11:53;;;;;;;1.65;0.75;;;;;;;8.15;46.71;96164.56;4986992;28;20257;-67
2023/01/25 04:14:20;;;;;;;0.00;0.00;;;;;;;8.06;46.64;96168.41;4990429;28;20257;-62
2023/01/25 04:17:09;;;;;;;0.00;0.00;;;;;;;8.12;46.65;96169.38;4970252;28;20199;-65
2023/01/25 04:20:09;;;;;;;0.55;0.43;;;;;;;8.33;46.45;96161.25;4972256;28;20328;-64
2023/01/25 04:22:39;;;;;;;0.00;0.00;;;;;;;8.16;46.67;96171.38;4977811;28;20223;-63
2023/01/25 04:25:07;;;;;;;0.00;0.00;;;;;;;8.40;46.35;96167.25;4971163;28;20270;-65
2023/01/25 04:27:39;;;;;;;0.00;0.00;;;;;;;8.34;46.25;96165.47;4988923;28;20190;-62
2023/01/25 04:30:11;;;;;;;0.00;0.00;;;;;;;8.18;47.04;96163.31;4974516;28;20203;-64
2023/01/25 04:32:38;;;;;;;0.10;0.10;;;;;;;8.24;46.78;96172.97;4977437;28;20231;-65
2023/01/25 04:35:19;;;;;;;0.00;0.00;;;;;;;8.26;46.53;96168.34;4968601;28;20203;-64
2023/01/25 04:37:55;;;;;;;0.55;0.55;;;;;;;7.97;46.25;96172.25;4969494;28;20210;-66
2023/01/25 04:40:27;;;;;;;0.00;0.00;;;;;;;7.83;46.02;96175.13;4989397;28;20710;-61
2023/01/25 04:42:54;;;;;;;0.00;0.00;;;;;;;7.98;46.70;96183.50;4999933;28;20228;-63
2023/01/25 04:45:22;;;;;;;0.25;0.25;;;;;;;7.82;46.92;96181.38;4978722;28;20191;-63
2023/01/25 04:47:54;;;;;;;0.00;0.00;;;;;;;8.13;45.88;96186.66;4987365;28;20207;-62
2023/01/25 04:50:21;;;;;;;0.10;0.10;;;;;;;8.25;46.19;96184.22;4987931;28;20206;-63
2023/01/25 04:52:48;;;;;;;0.00;0.00;;;;;;;8.17;45.44;96167.72;4987654;28;20202;-65
2023/01/25 04:55:16;;;;;;;0.25;0.25;;;;;;;8.13;46.13;96181.44;4988755;28;20285;-64
2023/01/25 04:57:43;;;;;;;0.00;0.00;;;;;;;8.16;46.14;96175.78;4970622;28;20206;-62
2023/01/25 05:00:11;;;;;;;0.00;0.00;;;;;;;8.18;46.29;96179.00;4968450;28;20271;-65
2023/01/25 05:02:40;;;;;;;0.00;0.00;;;;;;;8.42;45.75;96180.91;4981275;28;20786;-63
2023/01/25 05:05:07;;;;;;;0.00;0.00;;;;;;;8.25;45.67;96179.78;4981430;28;20197;-65
2023/01/25 05:07:35;;;;;;;0.00;0.00;;;;;;;8.24;46.04;96172.97;4988879;28;20198;-63
2023/01/25 05:10:03;;;;;;;0.00;0.00;;;;;;;8.07;45.59;96161.38;4986412;28;20241;-65
2023/01/25 05:12:31;;;;;;;0.05;0.05;;;;;;;8.04;46.65;96178.28;4983783;28;20234;-63
2023/01/25 05:15:01;;;;;;;0.08;0.08;;;;;;;8.17;45.64;96177.41;4986821;28;20737;-66
2023/01/25 05:17:28;;;;;;;0.00;0.00;;;;;;;7.99;45.81;96149.34;4988210;28;20572;-67
2023/01/25 05:19:55;;;;;;;0.10;0.10;;;;;;;8.19;45.37;96170.16;4989175;28;20329;-67
2023/01/25 05:22:23;;;;;;;0.00;0.00;;;;;;;8.21;45.32;96170.75;4988146;28;20673;-66
2023/01/25 05:24:52;;;;;;;0.00;0.00;;;;;;;8.29;45.83;96165.31;4988669;28;20187;-66
2023/01/25 05:27:20;;;;;;;0.50;0.50;;;;;;;8.28;45.95;96168.94;4986414;28;20210;-66
2023/01/25 05:29:54;;;;;;;0.10;0.10;;;;;;;8.10;46.27;96160.97;4988813;28;20281;-65
2023/01/25 05:32:41;;;;;;;2.47;1.25;;;;;;;8.14;45.88;96172.56;4971413;28;20235;-65
2023/01/25 05:35:08;;;;;;;0.00;0.00;;;;;;;8.13;45.45;96176.22;4980187;28;20202;-67
2023/01/25 05:37:37;;;;;;;6.70;0.73;;;;;;;8.21;45.78;96170.75;4985994;28;20203;-66
2023/01/25 05:40:07;;;;;;;0.00;0.00;;;;;;;8.14;45.91;96172.56;4987073;28;20570;-66
2023/01/25 05:42:37;;;;;;;0.00;0.00;;;;;;;8.26;45.25;96164.91;4981242;28;20199;-65
2023/01/25 05:45:09;;;;;;;0.00;0.00;;;;;;;8.03;45.40;96173.22;4974147;28;20211;-66
2023/01/25 05:47:38;;;;;;;0.20;0.20;;;;;;;8.18;45.25;96185.03;4986074;28;20709;-66
2023/01/25 05:50:06;;;;;;;0.00;0.00;;;;;;;8.09;45.28;96185.47;4988926;28;20194;-66
2023/01/25 05:52:54;;;;;;;0.20;0.20;;;;;;;8.24;45.18;96178.19;4987479;28;20203;-67
2023/01/25 05:55:21;;;;;;;1.27;1.20;;;;;;;8.25;44.82;96174.56;4986025;28;20210;-68
2023/01/25 05:57:54;;;;;;;0.32;0.32;;;;;;;7.98;45.03;96175.69;4987497;28;20241;-62
2023/01/25 06:00:21;;;;;;;0.10;0.10;;;;;;;8.19;45.55;96185.81;4976252;28;20269;-66
2023/01/25 06:02:48;;;;;;;0.55;0.55;;;;;;;8.16;44.92;96181.00;4986069;28;20253;-63
2023/01/25 06:05:20;;;;;;;0.00;0.00;;;;;;;8.25;44.74;96177.16;4983091;28;20202;-68
2023/01/25 06:07:47;;;;;;;1.70;1.25;;;;;;;8.33;45.10;96181.34;4989764;28;20222;-72
2023/01/25 06:10:16;;;;;;;1.00;0.73;;;;;;;8.28;44.87;96173.34;4990861;28;20692;-63
2023/01/25 06:12:45;;;;;;;0.40;0.40;;;;;;;8.20;44.33;96187.41;4991258;28;20289;-67
2023/01/25 06:15:12;;;;;;;0.03;0.03;;;;;;;8.29;44.28;96183.59;4978233;28;20203;-67
2023/01/25 06:17:40;;;;;;;0.00;0.00;;;;;;;8.26;44.99;96189.22;4982080;28;20710;-68
2023/01/25 06:20:23;;;;;;;0.20;0.20;;;;;;;8.20;45.02;96192.63;4971018;28;20598;-68
2023/01/25 06:23:04;;;;;;;0.30;0.30;;;;;;;7.97;45.25;96179.31;4986645;28;20198;-67
2023/01/25 06:25:30;;;;;;;0.00;0.00;;;;;;;8.11;44.76;96183.44;4991999;28;20325;-63
2023/01/25 06:27:57;;;;;;;0.00;0.00;;;;;;;8.02;44.70;96189.91;4991636;28;20202;-65
2023/01/25 06:30:24;;;;;;;0.60;0.60;;;;;;;8.11;44.63;96191.28;4992001;28;20202;-66
2023/01/25 06:32:51;;;;;;;0.55;0.55;;;;;;;7.97;44.68;96187.13;4992364;28;20716;-63
2023/01/25 06:35:18;;;;;;;3.95;1.98;;;;;;;7.65;45.17;96199.28;4990752;28;20214;-65
2023/01/25 06:37:45;;;;;;;2.17;1.02;;;;;;;8.08;45.25;96189.09;4989830;28;20202;-63
2023/01/25 06:40:12;;;;;;;0.10;0.10;;;;;;;7.85;45.05;96170.50;4989009;28;20230;-62
2023/01/25 06:42:39;;;;;;;0.00;0.00;;;;;;;8.29;44.60;96186.19;4989536;28;20195;-63
2023/01/25 06:45:06;;;;;;;0.00;0.00;;;;;;;8.30;44.91;96185.19;4989215;28;20194;-65
2023/01/25 06:47:34;;;;;;;0.98;0.82;;;;;;;8.23;45.27;96181.75;4989547;28;20266;-64
2023/01/25 06:50:02;;;;;;;0.08;0.08;;;;;;;8.07;44.71;96187.47;4989553;28;20195;-62
2023/01/25 06:52:30;;;;;;;0.00;0.00;;;;;;;8.03;44.87;96186.28;4989737;28;20207;-64
2023/01/25 06:54:57;;;;;;;0.00;0.00;;;;;;;8.04;45.50;96190.50;4991677;28;20233;-64
2023/01/25 06:57:24;;;;;;;0.00;0.00;;;;;;;8.01;45.51;96183.09;4991589;28;20199;-63
2023/01/25 06:59:51;;;;;;;0.00;0.00;;;;;;;8.17;45.41;96193.84;4991202;28;20229;-62
2023/01/25 07:02:18;;;;;;;0.00;0.00;;;;;;;8.14;45.19;96190.84;4991562;28;20218;-63
2023/01/25 07:04:45;;;;;;;0.20;0.20;;;;;;;8.22;44.94;96182.78;4991200;28;20260;-64
2023/01/25 07:07:11;;;;;;;0.20;0.20;;;;;;;8.16;45.45;96186.22;4991442;28;20253;-65
2023/01/25 07:09:38;;;;;;;0.10;0.10;;;;;;;8.19;45.30;96185.81;4990892;28;20220;-64
2023/01/25 07:12:05;;;;;;;0.15;0.15;;;;;;;8.39;44.88;96181.31;4991887;28;20218;-66
2023/01/25 07:14:32;;;;;;;0.00;0.00;;;;;;;8.36;45.53;96186.94;4992023;28;20217;-64
2023/01/25 07:16:59;;;;;;;0.13;0.13;;;;;;;8.23;45.40;96191.44;4991203;28;20229;-63
2023/01/25 07:19:29;;;;;;;10.68;1.95;;;;;;;7.97;45.22;96194.97;4991445;28;20758;-62
2023/01/25 07:21:56;;;;;;;0.52;0.52;;;;;;;7.98;44.73;96183.50;4990621;28;21046;-64
2023/01/25 07:24:27;;;;;;;0.10;0.10;;;;;;;8.23;45.01;96190.41;4991058;28;20237;-62
2023/01/25 07:26:54;;;;;;;0.65;0.65;;;;;;;8.40;44.42;96197.78;4990746;28;20281;-63
2023/01/25 07:29:21;;;;;;;0.00;0.00;;;;;;;8.55;44.53;96185.22;4979140;28;20306;-62
2023/01/25 07:31:48;;;;;;;0.17;0.17;;;;;;;8.49;44.63;96197.31;4988395;28;20712;-61
2023/01/25 07:34:15;;;;;;;0.43;0.43;;;;;;;8.22;44.71;96180.19;4991178;28;20198;-64
2023/01/25 07:36:42;;;;;;;0.10;0.10;;;;;;;8.30;44.66;96198.25;4990636;28;20594;-64
2023/01/25 07:39:10;;;;;;;0.00;0.00;;;;;;;8.43;44.89;96192.94;4991071;28;20198;-64
2023/01/25 07:41:38;;;;;;;0.10;0.10;;;;;;;8.46;44.89;96202.16;4990578;28;20242;-63
2023/01/25 07:44:10;;;;;;;1.95;0.45;;;;;;;8.17;44.71;96198.28;4989490;28;20226;-64
2023/01/25 07:46:43;;;;;;;1.20;0.35;;;;;;;8.04;44.70;96200.97;4988650;28;20890;-64
2023/01/25 07:49:10;;;;;;;0.00;0.00;;;;;;;8.02;45.88;96202.97;4990181;28;20195;-61
2023/01/25 07:51:36;;;;;;;0.03;0.03;;;;;;;8.36;47.84;96213.06;4990419;28;20207;-62
2023/01/25 07:54:04;;;;;;;0.00;0.00;;;;;;;8.43;47.49;96203.38;4990561;28;20324;-67
2023/01/25 07:56:35;;;;;;;0.00;0.00;;;;;;;8.74;47.00;96205.22;4990897;28;20208;-64
2023/01/25 07:59:02;;;;;;;1.25;0.95;;;;;;;8.68;46.63;96206.88;4990380;28;20215;-64
2023/01/25 08:01:35;;;;;;;0.25;0.25;;;;;;;8.30;46.40;96208.69;4979513;28;20350;-62
2023/01/25 08:04:03;;;;;;;0.00;0.00;;;;;;;8.49;46.88;96196.53;4987240;28;20752;-62
2023/01/25 08:06:37;;;;;;;10.15;1.13;;;;;;;8.49;46.38;96202.56;4990336;28;20286;-64
2023/01/25 08:09:11;;;;;;;0.17;0.17;;;;;;;8.64;46.33;96200.44;4990190;28;20202;-66
2023/01/25 08:11:38;;;;;;;0.00;0.00;;;;;;;8.46;45.18;96199.56;4990083;28;20298;-62
2023/01/25 08:14:05;;;;;;;0.68;0.68;;;;;;;8.30;45.75;96195.66;4977707;28;20199;-64
2023/01/25 08:16:32;;;;;;;1.08;0.80;;;;;;;8.41;44.94;96197.56;4989788;28;20210;-61
2023/01/25 08:19:01;;;;;;;0.20;0.20;;;;;;;8.39;45.49;96199.59;4989817;28;20198;-60
2023/01/25 08:21:31;;;;;;;0.00;0.00;;;;;;;8.30;45.27;96195.66;4988595;28;20222;-61
2023/01/25 08:24:00;;;;;;;0.00;0.00;;;;;;;8.18;45.86;96205.09;4990302;28;20187;-63
2023/01/25 08:26:27;;;;;;;0.63;0.40;;;;;;;8.18;46.01;96189.44;4989585;28;20660;-63
2023/01/25 08:28:55;;;;;;;0.00;0.00;;;;;;;8.21;45.91;96191.66;4990166;28;20241;-64
2023/01/25 08:31:26;;;;;;;0.05;0.05;;;;;;;8.34;45.96;96181.13;4989574;28;20273;-63
2023/01/25 08:33:53;;;;;;;0.98;0.98;;;;;;;8.35;46.08;96190.59;4990256;28;20209;-62
2023/01/25 08:36:22;;;;;;;0.10;0.10;;;;;;;8.30;45.82;96198.25;4989652;28;20199;-63
2023/01/25 08:38:56;;;;;;;0.00;0.00;;;;;;;8.31;45.98;96193.81;4989732;28;20617;-62
2023/01/25 08:41:25;;;;;;;0.57;0.47;;;;;;;8.32;46.32;96196.22;4990178;28;20237;-62
2023/01/25 08:43:53;;;;;;;0.00;0.00;;;;;;;8.42;45.89;96186.13;4989746;28;20627;-63
2023/01/25 08:46:21;;;;;;;0.10;0.10;;;;;;;8.26;46.32;96185.81;4989331;28;20650;-63
2023/01/25 08:48:53;;;;;;;0.00;0.00;;;;;;;8.37;45.82;96182.53;4990122;28;20210;-61
2023/01/25 08:51:20;;;;;;;0.35;0.35;;;;;;;8.48;45.50;96184.47;4988809;28;20256;-62
2023/01/25 08:53:47;;;;;;;0.00;0.00;;;;;;;8.22;46.27;96172.34;4989889;28;20194;-61
2023/01/25 08:56:15;;;;;;;0.00;0.00;;;;;;;8.58;45.94;96185.63;4989369;28;20225;-63
2023/01/25 08:58:45;;;;;;;0.93;0.73;;;;;;;8.64;45.87;96187.38;4989717;28;20191;-62
2023/01/25 09:01:13;;;;;;;0.35;0.30;;;;;;;8.51;45.81;96184.84;4976698;28;20280;-67
2023/01/25 09:03:43;;;;;;;0.00;0.00;;;;;;;8.58;45.47;96185.63;4988925;28;20198;-63
2023/01/25 09:06:11;;;;;;;0.52;0.52;;;;;;;8.65;45.97;96185.59;4989391;28;20205;-65
2023/01/25 09:08:39;;;;;;;0.00;0.00;;;;;;;8.77;45.62;96184.69;4988859;28;20206;-63
2023/01/25 09:11:11;;;;;;;0.63;0.63;;;;;;;8.12;46.78;96191.06;4988666;28;20622;-63
2023/01/25 09:13:42;;;;;;;0.08;0.08;;;;;;;8.39;46.22;96176.09;4989025;28;20198;-62
2023/01/25 09:16:14;;;;;;;0.00;0.00;;;;;;;8.73;45.71;96182.69;4988882;28;20293;-63
2023/01/25 09:18:43;;;;;;;0.00;0.00;;;;;;;8.67;45.98;96178.31;4989021;28;20213;-64
2023/01/25 09:21:15;;;;;;;0.00;0.00;;;;;;;8.27;46.31;96177.75;4988928;28;21066;-63
2023/01/25 09:23:43;;;;;;;1.30;0.75;;;;;;;7.92;47.30;96168.66;4988644;28;20591;-62
2023/01/25 09:26:23;;;;;;;0.15;0.15;;;;;;;8.06;47.09;96180.66;4974656;28;20581;-61
2023/01/25 09:28:52;;;;;;;0.00;0.00;;;;;;;8.21;47.03;96168.94;4989109;28;20194;-63
2023/01/25 09:31:20;;;;;;;0.13;0.13;;;;;;;8.44;46.31;96152.75;4987976;28;20607;-65
2023/01/25 09:34:11;;;;;;;0.00;0.00;;;;;;;8.39;48.46;96164.84;4988322;28;20586;-61
2023/01/25 09:36:38;;;;;;;0.30;0.30;;;;;;;8.25;47.05;96153.66;4988474;28;20265;-62
2023/01/25 09:39:06;;;;;;;0.05;0.05;;;;;;;8.36;46.86;96145.16;4989094;28;20519;-64
2023/01/25 09:42:03;;;;;;;0.22;0.22;;;;;;;8.28;46.81;96142.81;4987844;28;20217;-63
2023/01/25 09:45:10;;;;;;;3.95;0.60;;;;;;;8.44;46.82;96141.50;4988731;28;20881;-65
2023/01/25 09:47:40;;;;;;;1.13;0.75;;;;;;;8.13;47.47;96139.66;4988260;28;20544;-64
2023/01/25 09:50:12;;;;;;;0.00;0.00;;;;;;;8.42;46.88;96133.06;4988080;28;20241;-64
2023/01/25 09:52:45;;;;;;;0.35;0.35;;;;;;;8.81;46.43;96117.09;4989078;28;20282;-65
2023/01/25 09:55:15;;;;;;;0.35;0.35;;;;;;;8.34;46.04;96126.28;4987871;28;20186;-61
2023/01/25 09:57:45;;;;;;;0.22;0.22;;;;;;;8.37;46.52;96125.09;4988883;28;20210;-62
2023/01/25 10:00:22;;;;;;;0.00;0.00;;;;;;;8.67;45.97;96111.19;4987795;28;20198;-63
2023/01/25 10:03:19;;;;;;;0.00;0.00;;;;;;;8.78;44.94;96102.63;4975731;28;20241;-62
2023/01/25 10:05:48;;;;;;;0.10;0.10;;;;;;;8.66;45.05;96099.13;4988247;28;20266;-61
2023/01/25 10:08:27;;;;;;;0.05;0.05;;;;;;;8.38;44.83;96106.59;4988860;28;20221;-61
2023/01/25 10:11:03;;;;;;;5.38;1.75;;;;;;;8.51;45.65;96096.03;4988698;28;20255;-64
2023/01/25 10:13:31;;;;;;;0.10;0.10;;;;;;;8.24;44.76;96105.09;4988782;28;20210;-62
2023/01/25 10:16:04;;;;;;;0.00;0.00;;;;;;;7.87;45.82;96092.81;4987483;28;20194;-62
2023/01/25 10:18:59;;;;;;;0.60;0.55;;;;;;;8.81;44.65;96085.75;4988950;28;20198;-63
2023/01/25 10:21:32;;;;;;;0.25;0.25;;;;;;;9.05;44.18;96080.47;4987803;28;20226;-63
2023/01/25 10:24:20;;;;;;;0.00;0.00;;;;;;;8.88;43.75;96082.06;4986880;28;20216;-61
2023/01/25 10:26:55;;;;;;;0.00;0.00;;;;;;;9.18;43.27;96069.06;4988064;28;20249;-66
2023/01/25 10:29:35;;;;;;;0.00;0.00;;;;;;;9.13;43.57;96061.88;4988869;28;20241;-63
2023/01/25 10:32:25;;;;;;;0.47;0.47;;;;;;;9.04;43.81;96065.81;4988319;28;20230;-61
2023/01/25 10:34:56;;;;;;;0.00;0.00;;;;;;;9.42;43.42;96062.16;4987302;28;20839;-65
2023/01/25 10:37:29;;;;;;;0.00;0.00;;;;;;;9.44;43.07;96049.66;4988617;28;20361;-63
2023/01/25 10:40:16;;;;;;;2.17;1.27;;;;;;;9.34;43.03;96054.63;4987734;28;20309;-63
2023/01/25 10:43:05;;;;;;;6.32;1.33;;;;;;;9.06;43.51;96053.31;4988177;28;20222;-61
2023/01/25 10:45:32;;;;;;;0.00;0.00;;;;;;;9.00;43.95;96051.56;4990845;28;20226;-61
2023/01/25 10:48:07;;;;;;;0.85;0.82;;;;;;;9.36;43.08;96044.75;4991740;28;20305;-64
2023/01/25 10:50:45;;;;;;;0.40;0.35;;;;;;;9.21;42.50;96039.88;4991216;28;20201;-61
2023/01/25 10:53:33;;;;;;;0.03;0.03;;;;;;;9.25;43.09;96035.00;4999252;28;20254;-62
2023/01/25 10:56:09;;;;;;;0.00;0.00;;;;;;;9.44;43.06;96039.19;4988478;28;20206;-63
2023/01/25 10:58:45;;;;;;;0.10;0.10;;;;;;;9.57;42.72;96031.19;4992063;28;20272;-64
2023/01/25 11:01:24;;;;;;;0.00;0.00;;;;;;;9.35;43.10;96025.63;4979069;28;20336;-63
2023/01/25 11:03:51;;;;;;;0.10;0.10;;;;;;;8.69;43.32;96027.34;4991389;28;20281;-64
2023/01/25 11:06:37;;;;;;;0.00;0.00;;;;;;;9.29;42.97;96020.47;4990727;28;20206;-65
2023/01/25 11:09:30;;;;;;;0.10;0.10;;;;;;;9.21;42.89;96014.50;4991908;28;20238;-64
2023/01/25 11:12:19;;;;;;;0.00;0.00;;;;;;;9.39;42.74;96015.50;4991115;28;20203;-61
2023/01/25 11:14:50;;;;;;;0.00;0.00;;;;;;;9.02;43.35;96015.53;4991081;28;20203;-64
2023/01/25 11:17:30;;;;;;;0.00;0.00;;;;;;;9.08;42.91;96004.22;4978101;28;20202;-63
2023/01/25 11:20:16;;;;;;;0.00;0.00;;;;;;;9.46;42.59;96011.00;4991055;28;20213;-60
2023/01/25 11:22:55;;;;;;;0.90;0.50;;;;;;;9.67;42.82;95997.44;4991528;28;20603;-64
2023/01/25 11:25:31;;;;;;;0.00;0.00;;;;;;;9.89;41.73;96001.16;4988508;28;20206;-62
2023/01/25 11:28:20;;;;;;;0.00;0.00;;;;;;;9.79;41.93;95996.44;4991518;28;20210;-64
2023/01/25 11:30:49;;;;;;;0.00;0.00;;;;;;;9.47;42.35;95992.44;4980427;28;20286;-65
2023/01/25 11:33:18;;;;;;;0.35;0.35;;;;;;;9.76;41.50;95993.50;4990976;28;20195;-63
2023/01/25 11:36:18;;;;;;;0.00;0.00;;;;;;;9.73;41.43;95992.09;4991269;28;20213;-62
2023/01/25 11:38:54;;;;;;;0.03;0.03;;;;;;;9.80;41.60;95981.53;4999629;28;20210;-64
2023/01/25 11:41:32;;;;;;;1.38;1.27;;;;;;;9.59;42.25;95984.66;4990380;28;20317;-62
2023/01/25 11:44:16;;;;;;;0.10;0.10;;;;;;;9.61;42.19;95982.63;4989734;28;20776;-63
2023/01/25 11:47:00;;;;;;;0.10;0.10;;;;;;;9.88;41.77;95973.38;4978168;28;20206;-61
2023/01/25 11:49:34;;;;;;;0.28;0.28;;;;;;;9.74;41.91;95971.97;4990511;28;20202;-63
2023/01/25 11:52:21;;;;;;;0.22;0.20;;;;;;;9.71;41.80;95956.69;4990476;28;20289;-65
2023/01/25 11:54:58;;;;;;;0.75;0.30;;;;;;;9.51;41.92;95961.41;4983525;28;20186;-61
2023/01/25 11:58:02;;;;;;;0.00;0.00;;;;;;;9.38;42.27;95956.38;4990402;28;20258;-64
2023/01/25 12:00:38;;;;;;;0.00;0.00;;;;;;;9.19;42.25;95953.81;4989778;28;20297;-62